EmailTwitter


Surface observations / United Kingdom / EGLL (03772)

Regions: Quebec | Canada | USA | Europe | France | UK | Elsewhere
Station
Display
Info & Location for EGLL (03772) | Help decoding METAR

Weather Conditions observed on 2018/09/21 at 17:50 UTC at LONDON/HEATHROW, UK (EGLL)

Temperature: 15.0 Celsius.

Dewpoint: 6.0 Celsius.

Relative Humidity: 55%

Winds: West at 31 km/h or 17 knots.

Mean Sea level Pressure: 101.40 kilopascals.

Horizontal visibility: 6.21 statute miles or 9.94 kilometers.

Coded METAR:

EGLL 211750Z AUTO 26017KT 9999 NCD 15/06 Q1014 NOSIG=